This is the latest recevied weather packets stored in our database for station/object KB3KAV. If no packets are shown the sender has not sent any weather packets the latest 10 day(s).
| Time | Temp. | Humidity | Pressure | Rain* | Wind** | Luminosity | Snow |
|---|---|---|---|---|---|---|---|
| 1777827128 | 11.11° C | 35% | 1042.1 hPa | 0 mm | - | 271 W/m² | - |
| 1777826528 | 10.56° C | 39% | 1042.1 hPa | 0 mm | - | 297 W/m² | - |
| 1777825927 | 10.56° C | 36% | 1042.3 hPa | 0 mm | - | 814 W/m² | - |
| 1777825322 | 10° C | 37% | 1042.5 hPa | 0 mm | - | 927 W/m² | - |
| 1777824720 | 10.56° C | 36% | 1042.4 hPa | 0 mm | - | 294 W/m² | - |
| 1777824119 | 10° C | 36% | 1042.6 hPa | 0 mm | - | 324 W/m² | - |
| 1777823513 | 10° C | 36% | 1042.8 hPa | 0 mm | - | 424 W/m² | - |
| 1777822908 | 10° C | 37% | 1042.5 hPa | 0 mm | - | 783 W/m² | - |
| 1777822309 | 10° C | 36% | 1042.9 hPa | 0 mm | - | 843 W/m² | - |
| 1777821704 | 10.56° C | 36% | 1042.6 hPa | 0 mm | - | 839 W/m² | - |
| 1777821103 | 9.44° C | 37% | 1042.7 hPa | 0 mm | - | 732 W/m² | - |
| 1777820502 | 8.33° C | 41% | 1042.8 hPa | 0 mm | - | 177 W/m² | - |
| 1777819897 | 10° C | 34% | 1042.6 hPa | 0 mm | - | 195 W/m² | - |
| 1777819298 | 9.44° C | 34% | 1042.9 hPa | 0 mm | - | 661 W/m² | - |
| 1777818697 | 10° C | 37% | 1042.8 hPa | 0 mm | - | 661 W/m² | - |
| 1777818096 | 8.89° C | 36% | 1042.8 hPa | 0 mm | - | 649 W/m² | - |
| 1777817496 | 8.33° C | 40% | 1043.1 hPa | 0 mm | - | 283 W/m² | - |
| 1777816895 | 8.89° C | 37% | 1043.1 hPa | 0 mm | - | 602 W/m² | - |
| 1777816294 | 8.89° C | 42% | 1043.2 hPa | 0 mm | - | 582 W/m² | - |
| 1777815689 | 7.78° C | 45% | 1043.1 hPa | 0 mm | - | 157 W/m² | - |
| 1777815089 | 7.78° C | 47% | 1042.9 hPa | 0 mm | - | 115 W/m² | - |
| 1777814488 | 7.78° C | 49% | 1043.4 hPa | 0 mm | - | 415 W/m² | - |
| 1777813888 | 7.22° C | 52% | 1043.4 hPa | 0 mm | - | 373 W/m² | - |
| 1777813283 | 7.22° C | 54% | 1043.4 hPa | 0 mm | - | 337 W/m² | - |
| 1777812678 | 6.67° C | 56% | 1043.4 hPa | 0 mm | - | 315 W/m² | - |
* Rain latest hour (hover to see other rain measurements)
** Current wind speed in m/s (hover to see current wind gust speed)